Time;durP1;ratioP1;P1;durP2;ratioP2;P2;SDS_P1;SDS_P2;PMS_P1;PMS_P2;Temp;Humidity;BMP_temperature;BMP_pressure;BME280_temperature;BME280_humidity;BME280_pressure;Samples;Min_cycle;Max_cycle;Signal;HPM_P1;HPM_P2
2021/01/06 00:00:25;;;;;;;19.30;13.88;;;;;;;;;;6211789;23;20024;-79
2021/01/06 00:02:51;;;;;;;18.38;13.82;;;;;;;;;;6211081;23;20017;-79
2021/01/06 00:05:19;;;;;;;20.05;14.02;;;;;;;;;;6209692;23;20690;-79
2021/01/06 00:07:46;;;;;;;18.73;13.05;;;;;;;;;;6211782;23;20020;-79
2021/01/06 00:10:18;;;;;;;17.88;12.65;;;;;;;;;;6210500;23;20100;-79
2021/01/06 00:12:45;;;;;;;21.05;13.13;;;;;;;;;;6209950;23;20039;-78
2021/01/06 00:15:15;;;;;;;19.35;12.45;;;;;;;;;;6209559;23;20016;-77
2021/01/06 00:17:41;;;;;;;21.75;12.82;;;;;;;;;;6210863;23;20099;-80
2021/01/06 00:20:09;;;;;;;17.13;12.35;;;;;;;;;;6210148;23;20396;-79
2021/01/06 00:22:35;;;;;;;18.60;12.57;;;;;;;;;;6210605;23;20482;-77
2021/01/06 00:25:01;;;;;;;16.13;11.82;;;;;;;;;;6210409;23;20095;-78
2021/01/06 00:27:27;;;;;;;18.27;12.93;;;;;;;;;;6210443;23;20096;-78
2021/01/06 00:29:54;;;;;;;16.52;11.23;;;;;;;;;;6210535;23;20027;-78
2021/01/06 00:32:22;;;;;;;18.90;12.43;;;;;;;;;;6210338;23;20488;-79
2021/01/06 00:34:48;;;;;;;14.35;10.95;;;;;;;;;;6210793;23;20028;-79
2021/01/06 00:37:15;;;;;;;21.10;12.82;;;;;;;;;;6211846;23;20029;-78
2021/01/06 00:39:41;;;;;;;19.10;12.38;;;;;;;;;;6212980;23;20023;-78
2021/01/06 00:42:07;;;;;;;15.73;11.50;;;;;;;;;;6213731;23;20020;-79
2021/01/06 00:44:33;;;;;;;16.55;12.57;;;;;;;;;;6213992;23;20074;-79
2021/01/06 00:47:00;;;;;;;17.63;12.40;;;;;;;;;;6212640;23;20400;-80
2021/01/06 00:49:26;;;;;;;15.98;12.40;;;;;;;;;;6212021;23;20093;-79
2021/01/06 00:51:52;;;;;;;20.80;11.68;;;;;;;;;;6213540;23;20496;-79
2021/01/06 00:54:18;;;;;;;18.10;11.98;;;;;;;;;;6186955;23;20021;-80
2021/01/06 00:56:44;;;;;;;16.23;12.07;;;;;;;;;;6213023;23;20028;-79
2021/01/06 00:59:11;;;;;;;15.20;11.77;;;;;;;;;;6213900;23;20120;-79
2021/01/06 01:01:37;;;;;;;16.05;11.40;;;;;;;;;;6214070;23;20108;-79
2021/01/06 01:04:03;;;;;;;15.88;11.30;;;;;;;;;;6213499;23;20027;-76
2021/01/06 01:06:31;;;;;;;15.57;11.75;;;;;;;;;;6212313;23;20051;-79
2021/01/06 01:09:01;;;;;;;15.35;10.90;;;;;;;;;;6212600;23;20025;-81
2021/01/06 01:11:27;;;;;;;16.48;11.55;;;;;;;;;;6212629;23;20527;-78
2021/01/06 01:13:54;;;;;;;18.55;11.68;;;;;;;;;;6212769;23;20104;-78
2021/01/06 01:16:21;;;;;;;14.38;10.32;;;;;;;;;;6212973;23;20051;-77
2021/01/06 01:18:47;;;;;;;16.17;11.73;;;;;;;;;;6211002;23;20021;-77
2021/01/06 01:21:18;;;;;;;15.43;11.90;;;;;;;;;;6212996;23;20086;-77
2021/01/06 01:23:44;;;;;;;14.55;10.75;;;;;;;;;;6212542;23;20016;-80
2021/01/06 01:26:11;;;;;;;16.70;11.63;;;;;;;;;;6212745;23;20063;-79
2021/01/06 01:28:37;;;;;;;15.18;10.88;;;;;;;;;;6212997;23;20020;-81
2021/01/06 01:31:03;;;;;;;14.90;10.98;;;;;;;;;;6212921;23;20100;-82
2021/01/06 01:33:29;;;;;;;17.77;10.77;;;;;;;;;;6212049;23;20096;-81
2021/01/06 01:35:59;;;;;;;16.42;10.98;;;;;;;;;;6211884;23;20059;-81
2021/01/06 01:38:27;;;;;;;15.40;10.80;;;;;;;;;;6213097;23;20095;-80
2021/01/06 01:41:02;;;;;;;14.98;10.85;;;;;;;;;;6212907;23;20060;-80
2021/01/06 01:43:29;;;;;;;11.82;9.73;;;;;;;;;;6213080;23;20408;-80
2021/01/06 01:45:55;;;;;;;13.23;9.75;;;;;;;;;;6185653;23;20559;-80
2021/01/06 01:48:27;;;;;;;13.70;9.80;;;;;;;;;;6212669;23;20091;-79
2021/01/06 01:50:56;;;;;;;15.95;10.13;;;;;;;;;;6212825;23;20020;-79
2021/01/06 01:53:27;;;;;;;13.90;9.48;;;;;;;;;;6212712;23;20092;-79
2021/01/06 01:55:55;;;;;;;12.75;9.48;;;;;;;;;;6213254;23;20759;-80
2021/01/06 01:58:24;;;;;;;15.98;9.93;;;;;;;;;;6213172;23;20096;-80
2021/01/06 02:00:50;;;;;;;13.75;10.65;;;;;;;;;;6211913;23;20027;-79
2021/01/06 02:03:16;;;;;;;18.48;11.15;;;;;;;;;;6212409;23;20067;-80
2021/01/06 02:05:45;;;;;;;14.88;10.57;;;;;;;;;;6214279;23;20017;-80
2021/01/06 02:08:17;;;;;;;12.60;9.77;;;;;;;;;;6213636;23;20096;-79
2021/01/06 02:10:57;;;;;;;14.90;9.50;;;;;;;;;;6214308;23;20313;-82
2021/01/06 02:13:34;;;;;;;15.35;9.65;;;;;;;;;;6214892;23;20552;-81
2021/01/06 02:16:13;;;;;;;14.27;9.88;;;;;;;;;;6214217;23;20405;-80
2021/01/06 02:18:39;;;;;;;14.68;9.70;;;;;;;;;;6213783;23;20024;-83
2021/01/06 02:21:10;;;;;;;13.23;9.05;;;;;;;;;;6211042;23;20017;-82
2021/01/06 02:23:37;;;;;;;15.80;9.50;;;;;;;;;;6213096;23;20027;-78
2021/01/06 02:26:03;;;;;;;15.05;10.00;;;;;;;;;;6214035;23;20099;-79
2021/01/06 02:28:30;;;;;;;13.05;8.45;;;;;;;;;;6214446;23;20524;-78
2021/01/06 02:30:56;;;;;;;13.68;9.10;;;;;;;;;;6212928;23;20023;-79
2021/01/06 02:33:23;;;;;;;12.48;8.70;;;;;;;;;;6212274;23;20143;-79
2021/01/06 02:35:50;;;;;;;15.65;9.63;;;;;;;;;;6215087;23;20023;-80
2021/01/06 02:38:17;;;;;;;13.20;9.23;;;;;;;;;;6213363;23;20400;-78
2021/01/06 02:40:43;;;;;;;11.88;8.80;;;;;;;;;;6213906;23;20023;-78
2021/01/06 02:43:11;;;;;;;13.27;9.73;;;;;;;;;;6213345;23;20020;-84
2021/01/06 02:45:37;;;;;;;12.00;8.75;;;;;;;;;;6213098;23;20111;-84
2021/01/06 02:48:03;;;;;;;15.40;9.73;;;;;;;;;;6214751;23;20048;-84
2021/01/06 02:50:30;;;;;;;12.75;8.93;;;;;;;;;;6214280;23;20017;-83
2021/01/06 02:52:59;;;;;;;12.40;8.30;;;;;;;;;;6214565;23;20051;-84
2021/01/06 02:55:26;;;;;;;12.75;8.75;;;;;;;;;;6213846;23;20027;-86
2021/01/06 02:57:53;;;;;;;12.35;8.57;;;;;;;;;;6213517;23;20103;-86
2021/01/06 03:00:22;;;;;;;14.00;8.90;;;;;;;;;;6187568;23;20116;-86
2021/01/06 03:02:49;;;;;;;12.98;8.52;;;;;;;;;;6213299;23;20027;-85
2021/01/06 03:05:18;;;;;;;12.13;8.98;;;;;;;;;;6186221;23;20058;-81
2021/01/06 03:07:45;;;;;;;11.55;8.52;;;;;;;;;;6215017;23;20128;-82
2021/01/06 03:10:16;;;;;;;11.18;8.38;;;;;;;;;;6214642;23;20348;-82
2021/01/06 03:12:42;;;;;;;12.55;8.85;;;;;;;;;;6213865;23;20023;-81
2021/01/06 03:15:09;;;;;;;13.35;8.27;;;;;;;;;;6212332;23;20039;-80
2021/01/06 03:17:35;;;;;;;12.38;8.38;;;;;;;;;;6213250;23;20099;-81
2021/01/06 03:20:03;;;;;;;11.57;8.57;;;;;;;;;;6212692;23;20020;-81
2021/01/06 03:22:31;;;;;;;11.60;8.27;;;;;;;;;;6186993;23;20464;-83
2021/01/06 03:25:01;;;;;;;9.80;7.10;;;;;;;;;;6213348;23;20358;-83
2021/01/06 03:27:27;;;;;;;11.55;7.47;;;;;;;;;;6213889;23;20100;-84
2021/01/06 03:29:54;;;;;;;12.82;8.48;;;;;;;;;;6213441;23;20067;-84
2021/01/06 03:32:35;;;;;;;10.40;7.95;;;;;;;;;;6212660;23;20024;-85
2021/01/06 03:35:05;;;;;;;11.30;8.20;;;;;;;;;;6213549;23;20128;-86
2021/01/06 03:37:37;;;;;;;12.73;7.95;;;;;;;;;;6213770;23;20091;-83
2021/01/06 03:40:08;;;;;;;9.43;7.18;;;;;;;;;;6212309;23;20027;-82
2021/01/06 03:42:35;;;;;;;12.05;7.13;;;;;;;;;;6213497;23;20029;-82
2021/01/06 03:45:03;;;;;;;11.15;7.05;;;;;;;;;;6213324;23;20016;-82
2021/01/06 03:47:32;;;;;;;9.45;6.95;;;;;;;;;;6214117;23;20351;-80
2021/01/06 03:50:01;;;;;;;10.98;6.90;;;;;;;;;;6213257;23;20020;-81
2021/01/06 03:52:30;;;;;;;11.07;7.72;;;;;;;;;;6212855;23;20034;-82
2021/01/06 03:55:05;;;;;;;8.37;6.73;;;;;;;;;;6213251;23;20099;-81
2021/01/06 03:57:31;;;;;;;9.48;6.45;;;;;;;;;;6186871;23;20333;-81
2021/01/06 03:59:59;;;;;;;10.15;6.85;;;;;;;;;;6213047;23;20056;-81
2021/01/06 04:02:25;;;;;;;9.30;6.88;;;;;;;;;;6214025;23;20107;-80
2021/01/06 04:04:58;;;;;;;11.55;7.25;;;;;;;;;;6211771;23;20499;-81
2021/01/06 04:07:44;;;;;;;10.70;7.10;;;;;;;;;;6213537;23;20024;-81
2021/01/06 04:10:12;;;;;;;9.45;6.97;;;;;;;;;;6212879;23;20085;-81
2021/01/06 04:12:38;;;;;;;10.63;6.95;;;;;;;;;;6212830;23;20516;-78
2021/01/06 04:15:06;;;;;;;10.23;7.45;;;;;;;;;;6212050;23;20104;-78
2021/01/06 04:17:36;;;;;;;9.77;7.07;;;;;;;;;;6213108;23;20103;-77
2021/01/06 04:20:02;;;;;;;8.90;6.20;;;;;;;;;;6211505;23;20035;-76
2021/01/06 04:22:48;;;;;;;10.25;6.60;;;;;;;;;;6213746;23;20099;-79
2021/01/06 04:25:21;;;;;;;9.00;6.82;;;;;;;;;;6212866;23;20028;-80
2021/01/06 04:27:51;;;;;;;9.40;7.47;;;;;;;;;;6213027;23;20099;-78
2021/01/06 04:30:17;;;;;;;;;;;;;;;;;;6212866;23;20111;-78
2021/01/06 04:32:43;;;;;;;9.52;6.13;;;;;;;;;;6213837;23;19923;-78
2021/01/06 04:35:09;;;;;;;9.85;7.10;;;;;;;;;;6213048;23;20099;-78
2021/01/06 04:37:35;;;;;;;9.20;6.65;;;;;;;;;;6212713;23;20100;-81
2021/01/06 04:40:02;;;;;;;10.45;6.47;;;;;;;;;;6211989;23;20048;-79
2021/01/06 04:42:30;;;;;;;10.30;6.63;;;;;;;;;;6212583;23;20532;-80
2021/01/06 04:45:16;;;;;;;8.20;6.57;;;;;;;;;;6211951;23;20023;-79
2021/01/06 04:47:45;;;;;;;9.93;6.40;;;;;;;;;;6212637;23;20016;-81
2021/01/06 04:50:40;;;;;;;10.88;6.43;;;;;;;;;;6212956;23;20025;-81
2021/01/06 04:53:09;;;;;;;9.50;6.75;;;;;;;;;;6211469;23;20021;-80
2021/01/06 04:55:54;;;;;;;8.05;6.22;;;;;;;;;;6212852;23;20016;-78
2021/01/06 04:58:20;;;;;;;8.70;6.82;;;;;;;;;;6212514;23;20055;-78
2021/01/06 05:00:52;;;;;;;8.80;6.28;;;;;;;;;;6212828;23;20023;-79
2021/01/06 05:03:21;;;;;;;8.90;5.93;;;;;;;;;;6186152;23;20028;-78
2021/01/06 05:06:06;;;;;;;9.40;6.67;;;;;;;;;;6212380;23;20119;-79
2021/01/06 05:08:40;;;;;;;10.00;7.00;;;;;;;;;;6212893;23;20321;-79
2021/01/06 05:11:18;;;;;;;9.98;6.35;;;;;;;;;;6212725;23;20027;-81
2021/01/06 05:13:50;;;;;;;10.98;5.78;;;;;;;;;;6213063;23;20016;-83
2021/01/06 05:16:36;;;;;;;7.78;5.80;;;;;;;;;;6212507;23;20032;-82
2021/01/06 05:19:04;;;;;;;7.35;6.00;;;;;;;;;;6185981;23;20380;-82
2021/01/06 05:21:30;;;;;;;9.07;5.88;;;;;;;;;;6213317;23;20107;-83
2021/01/06 05:24:02;;;;;;;8.20;5.82;;;;;;;;;;6213244;23;20099;-82
2021/01/06 05:26:30;;;;;;;10.27;6.43;;;;;;;;;;6212789;23;20344;-79
2021/01/06 05:28:56;;;;;;;7.53;5.60;;;;;;;;;;6211625;23;20386;-80
2021/01/06 05:31:22;;;;;;;8.13;6.05;;;;;;;;;;6212437;23;20023;-81
2021/01/06 05:33:50;;;;;;;7.63;5.75;;;;;;;;;;6212570;23;20056;-81
2021/01/06 05:36:37;;;;;;;7.35;5.45;;;;;;;;;;6211873;23;20021;-80
2021/01/06 05:39:15;;;;;;;12.10;5.63;;;;;;;;;;6213012;23;20402;-81
2021/01/06 05:41:43;;;;;;;8.73;5.60;;;;;;;;;;6214306;23;20095;-81
2021/01/06 05:44:09;;;;;;;7.40;5.60;;;;;;;;;;6214577;23;20104;-80
2021/01/06 05:46:35;;;;;;;9.43;6.05;;;;;;;;;;6214513;23;20095;-80
2021/01/06 05:49:03;;;;;;;8.73;6.07;;;;;;;;;;6215075;23;20494;-80
2021/01/06 05:51:34;;;;;;;8.60;5.63;;;;;;;;;;6214165;23;20044;-80
2021/01/06 05:54:02;;;;;;;8.93;4.75;;;;;;;;;;6213351;23;20027;-79
2021/01/06 05:56:29;;;;;;;8.13;5.60;;;;;;;;;;6214688;23;20113;-79
2021/01/06 05:59:14;;;;;;;7.72;5.78;;;;;;;;;;6213201;23;20613;-79
2021/01/06 06:01:47;;;;;;;8.38;5.15;;;;;;;;;;6212849;23;20020;-80
2021/01/06 06:04:36;;;;;;;8.50;5.93;;;;;;;;;;6213708;23;20531;-80
2021/01/06 06:07:06;;;;;;;7.53;5.33;;;;;;;;;;6214674;23;20091;-80
2021/01/06 06:09:35;;;;;;;7.75;5.90;;;;;;;;;;6213451;23;20055;-78
2021/01/06 06:12:04;;;;;;;7.50;5.28;;;;;;;;;;6213718;23;20067;-79
2021/01/06 06:14:30;;;;;;;5.57;4.78;;;;;;;;;;6213645;23;20079;-81
2021/01/06 06:17:03;;;;;;;9.95;5.25;;;;;;;;;;6213632;23;20099;-80
2021/01/06 06:19:48;;;;;;;8.35;4.97;;;;;;;;;;6213618;23;20027;-80
2021/01/06 06:22:26;;;;;;;7.13;4.82;;;;;;;;;;6213498;23;20024;-78
2021/01/06 06:25:01;;;;;;;7.55;4.95;;;;;;;;;;6213971;23;20031;-77
2021/01/06 06:27:30;;;;;;;8.05;5.07;;;;;;;;;;6211439;23;20060;-77
2021/01/06 06:29:56;;;;;;;7.13;4.93;;;;;;;;;;6214322;23;20083;-76
2021/01/06 06:32:32;;;;;;;7.55;5.20;;;;;;;;;;6212283;23;20060;-82
2021/01/06 06:35:16;;;;;;;7.00;5.05;;;;;;;;;;6213833;23;20356;-87
2021/01/06 06:37:50;;;;;;;9.48;5.32;;;;;;;;;;6213209;23;20099;-83
2021/01/06 06:40:16;;;;;;;6.75;4.82;;;;;;;;;;6212776;23;20095;-81
2021/01/06 06:42:47;;;;;;;8.15;4.80;;;;;;;;;;6213262;23;20055;-85
2021/01/06 06:45:46;;;;;;;6.75;4.90;;;;;;;;;;6212981;23;20024;-84
2021/01/06 06:48:15;;;;;;;10.27;5.68;;;;;;;;;;6133206;23;20344;-87
2021/01/06 06:50:49;;;;;;;7.93;5.47;;;;;;;;;;6213584;23;20088;-82
2021/01/06 06:53:20;;;;;;;7.78;4.80;;;;;;;;;;6212999;23;20095;-80
2021/01/06 06:55:49;;;;;;;7.50;5.25;;;;;;;;;;6213867;23;20116;-84
2021/01/06 06:58:31;;;;;;;8.00;5.37;;;;;;;;;;6213925;23;20444;-84
2021/01/06 07:00:58;;;;;;;7.85;5.53;;;;;;;;;;6213185;23;20078;-84
2021/01/06 07:03:34;;;;;;;8.55;6.00;;;;;;;;;;6215053;23;20657;-78
2021/01/06 07:06:01;;;;;;;7.38;5.45;;;;;;;;;;6212927;23;20048;-79
2021/01/06 07:08:27;;;;;;;6.88;5.47;;;;;;;;;;6213358;23;20020;-76
2021/01/06 07:10:59;;;;;;;9.55;5.75;;;;;;;;;;6211819;23;20658;-79
2021/01/06 07:13:26;;;;;;;8.82;6.10;;;;;;;;;;6213144;23;20055;-73
2021/01/06 07:15:57;;;;;;;9.02;6.22;;;;;;;;;;6213336;23;20402;-77
2021/01/06 07:18:26;;;;;;;8.18;5.78;;;;;;;;;;6212902;23;20028;-80
2021/01/06 07:21:03;;;;;;;7.37;5.20;;;;;;;;;;6213082;23;20071;-77
2021/01/06 07:23:33;;;;;;;8.15;5.28;;;;;;;;;;6213658;23;20234;-79
2021/01/06 07:26:11;;;;;;;8.80;5.95;;;;;;;;;;6212288;23;20016;-81
2021/01/06 07:28:37;;;;;;;8.52;5.43;;;;;;;;;;6210337;23;20035;-80
2021/01/06 07:31:10;;;;;;;8.75;5.40;;;;;;;;;;6212027;23;20026;-80
2021/01/06 07:33:40;;;;;;;6.10;4.50;;;;;;;;;;6209140;23;20028;-80
2021/01/06 07:36:18;;;;;;;9.10;5.50;;;;;;;;;;6210554;23;20517;-79
2021/01/06 07:38:46;;;;;;;7.30;5.18;;;;;;;;;;6211847;23;20063;-81
2021/01/06 07:41:13;;;;;;;7.93;4.90;;;;;;;;;;6211122;23;20035;-81
2021/01/06 07:43:44;;;;;;;7.15;4.93;;;;;;;;;;6213543;23;20088;-82
2021/01/06 07:46:18;;;;;;;7.28;4.80;;;;;;;;;;6185310;23;20020;-82
2021/01/06 07:48:48;;;;;;;6.60;4.85;;;;;;;;;;6212252;23;20505;-84
2021/01/06 07:51:17;;;;;;;7.95;5.28;;;;;;;;;;6211578;23;20048;-81
2021/01/06 07:53:52;;;;;;;7.00;5.05;;;;;;;;;;6210295;23;20058;-74
2021/01/06 07:56:38;;;;;;;11.05;6.93;;;;;;;;;;6208270;23;20032;-78
2021/01/06 07:59:13;;;;;;;30.23;9.38;;;;;;;;;;6210030;23;20177;-76
2021/01/06 08:01:43;;;;;;;20.10;9.27;;;;;;;;;;6210935;23;20108;-78
2021/01/06 08:04:33;;;;;;;31.00;12.23;;;;;;;;;;6210108;23;20024;-78
2021/01/06 08:07:06;;;;;;;23.53;11.73;;;;;;;;;;6192496;23;20453;-74
2021/01/06 08:09:32;;;;;;;23.92;11.63;;;;;;;;;;6211509;23;20269;-77
2021/01/06 08:12:00;;;;;;;23.58;9.82;;;;;;;;;;6211911;23;20112;-78
2021/01/06 08:14:29;;;;;;;26.20;10.20;;;;;;;;;;6212755;23;20064;-77
2021/01/06 08:16:56;;;;;;;19.70;9.68;;;;;;;;;;6213162;23;20482;-76
2021/01/06 08:19:25;;;;;;;19.98;9.68;;;;;;;;;;6203268;22;20115;-76
2021/01/06 08:21:54;;;;;;;19.15;8.75;;;;;;;;;;6212591;23;20025;-75
2021/01/06 08:24:20;;;;;;;14.35;8.60;;;;;;;;;;6213331;23;20475;-75
2021/01/06 08:26:48;;;;;;;14.50;8.63;;;;;;;;;;6213421;23;20020;-75
2021/01/06 08:29:14;;;;;;;14.05;8.93;;;;;;;;;;6213621;23;20095;-75
2021/01/06 08:31:41;;;;;;;25.70;8.90;;;;;;;;;;6186875;23;20099;-75
2021/01/06 08:34:28;;;;;;;13.90;7.70;;;;;;;;;;6212948;23;20023;-75
2021/01/06 08:37:03;;;;;;;13.05;7.55;;;;;;;;;;6212578;23;20020;-75
2021/01/06 08:39:30;;;;;;;15.93;7.93;;;;;;;;;;6213671;23;20020;-75
2021/01/06 08:42:06;;;;;;;14.68;7.82;;;;;;;;;;6213530;23;20467;-75
2021/01/06 08:44:40;;;;;;;15.40;7.30;;;;;;;;;;6213428;23;20027;-76
2021/01/06 08:47:08;;;;;;;14.32;7.80;;;;;;;;;;6213491;23;20377;-76
2021/01/06 08:49:36;;;;;;;;;;;;;;;;;;6213807;23;20345;-75
2021/01/06 08:52:17;;;;;;;11.57;6.43;;;;;;;;;;6213152;23;20324;-75
2021/01/06 08:54:45;;;;;;;12.05;7.05;;;;;;;;;;6213114;23;20020;-75
2021/01/06 08:57:23;;;;;;;13.73;6.68;;;;;;;;;;6212735;23;20025;-76
2021/01/06 08:59:49;;;;;;;12.68;7.05;;;;;;;;;;6213638;23;20016;-74
2021/01/06 09:02:17;;;;;;;12.73;6.18;;;;;;;;;;6213267;23;20583;-75
2021/01/06 09:04:44;;;;;;;10.45;6.05;;;;;;;;;;6213082;23;20048;-76
2021/01/06 09:07:24;;;;;;;13.48;7.28;;;;;;;;;;6213318;23;20074;-75
2021/01/06 09:09:59;;;;;;;10.93;6.15;;;;;;;;;;6211426;23;20052;-77
2021/01/06 09:12:29;;;;;;;11.45;5.32;;;;;;;;;;6213035;23;20478;-75
2021/01/06 09:14:57;;;;;;;10.25;6.38;;;;;;;;;;6212281;23;20520;-76
2021/01/06 09:17:35;;;;;;;9.48;5.75;;;;;;;;;;6185851;23;20021;-75
2021/01/06 09:20:21;;;;;;;10.40;6.07;;;;;;;;;;6212299;23;20031;-75
2021/01/06 09:22:48;;;;;;;11.27;5.82;;;;;;;;;;6205692;23;20021;-75
2021/01/06 09:25:19;;;;;;;11.10;7.32;;;;;;;;;;6211421;23;20031;-74
2021/01/06 09:27:47;;;;;;;9.88;5.93;;;;;;;;;;6210961;23;20107;-74
2021/01/06 09:30:14;;;;;;;12.18;7.05;;;;;;;;;;6212052;23;20075;-73
2021/01/06 09:32:40;;;;;;;14.20;7.00;;;;;;;;;;6211822;23;20032;-74
2021/01/06 09:35:09;;;;;;;9.48;6.32;;;;;;;;;;6211821;23;20095;-74
2021/01/06 09:37:36;;;;;;;12.55;6.60;;;;;;;;;;6213025;23;20052;-73
2021/01/06 09:40:19;;;;;;;10.35;6.35;;;;;;;;;;6212393;23;20017;-73
2021/01/06 09:43:00;;;;;;;14.82;6.80;;;;;;;;;;6212032;23;20468;-74
2021/01/06 09:45:28;;;;;;;9.68;6.45;;;;;;;;;;6212043;23;20100;-74
2021/01/06 09:47:58;;;;;;;9.10;6.05;;;;;;;;;;6212658;23;20600;-74
2021/01/06 09:50:40;;;;;;;12.98;7.57;;;;;;;;;;6212346;23;20039;-74
2021/01/06 09:53:08;;;;;;;10.90;6.65;;;;;;;;;;6211086;23;20048;-74
2021/01/06 09:55:40;;;;;;;13.10;6.80;;;;;;;;;;6211626;23;20029;-74
2021/01/06 09:58:07;;;;;;;11.13;5.88;;;;;;;;;;6212475;23;20021;-74
2021/01/06 10:00:35;;;;;;;10.52;6.82;;;;;;;;;;6212303;23;20096;-74
2021/01/06 10:03:02;;;;;;;10.70;5.95;;;;;;;;;;6211717;23;20021;-74
2021/01/06 10:05:38;;;;;;;10.40;6.18;;;;;;;;;;6212378;23;20017;-74
2021/01/06 10:08:13;;;;;;;9.18;5.95;;;;;;;;;;6212304;23;20020;-74
2021/01/06 10:10:39;;;;;;;8.75;6.10;;;;;;;;;;6212070;23;20074;-74
2021/01/06 10:13:12;;;;;;;8.35;5.78;;;;;;;;;;6212280;23;20099;-74
2021/01/06 10:15:41;;;;;;;9.50;5.72;;;;;;;;;;6211525;23;20095;-75
2021/01/06 10:18:26;;;;;;;9.88;6.22;;;;;;;;;;6211830;23;20413;-74
2021/01/06 10:20:55;;;;;;;12.63;6.82;;;;;;;;;;6212352;23;20027;-74
2021/01/06 10:23:27;;;;;;;9.77;5.82;;;;;;;;;;6211789;23;20017;-75
2021/01/06 10:25:56;;;;;;;8.88;4.97;;;;;;;;;;6212952;23;20021;-73
2021/01/06 10:28:32;;;;;;;8.70;5.82;;;;;;;;;;6214128;23;20378;-74
2021/01/06 10:31:04;;;;;;;8.00;5.95;;;;;;;;;;6213668;23;20017;-73
2021/01/06 10:33:32;;;;;;;8.75;5.57;;;;;;;;;;6213955;23;20025;-74
2021/01/06 10:36:07;;;;;;;8.38;5.55;;;;;;;;;;6213127;23;20020;-74
2021/01/06 10:38:47;;;;;;;8.32;5.53;;;;;;;;;;6213532;23;20024;-73
2021/01/06 10:41:19;;;;;;;9.10;4.88;;;;;;;;;;6213126;23;20128;-74
2021/01/06 10:43:48;;;;;;;9.35;5.63;;;;;;;;;;6213048;23;20026;-73
2021/01/06 10:46:32;;;;;;;8.33;4.90;;;;;;;;;;6213144;23;20410;-74
2021/01/06 10:48:59;;;;;;;9.68;5.43;;;;;;;;;;6213785;23;20833;-75
2021/01/06 10:51:47;;;;;;;9.50;5.88;;;;;;;;;;6212989;23;20027;-74
2021/01/06 10:54:15;;;;;;;7.70;4.55;;;;;;;;;;6213276;23;20100;-74
2021/01/06 10:56:43;;;;;;;6.50;4.13;;;;;;;;;;6213641;23;20103;-74
2021/01/06 10:59:13;;;;;;;9.60;5.65;;;;;;;;;;6212961;23;20052;-74
2021/01/06 11:02:01;;;;;;;10.32;5.30;;;;;;;;;;6212824;23;20021;-75
2021/01/06 11:04:37;;;;;;;6.40;4.20;;;;;;;;;;6212228;23;20029;-75
2021/01/06 11:07:13;;;;;;;7.90;4.82;;;;;;;;;;6213636;23;20387;-75
2021/01/06 11:10:05;;;;;;;8.13;5.68;;;;;;;;;;6212158;23;20103;-74
2021/01/06 11:12:54;;;;;;;7.43;4.75;;;;;;;;;;6213609;23;20321;-74
2021/01/06 11:15:43;;;;;;;8.88;5.00;;;;;;;;;;6212865;23;20027;-74
2021/01/06 11:18:18;;;;;;;9.52;4.88;;;;;;;;;;6212829;23;20024;-74
2021/01/06 11:20:47;;;;;;;8.13;4.82;;;;;;;;;;6213214;23;20336;-74
2021/01/06 11:23:23;;;;;;;7.70;4.90;;;;;;;;;;6213392;23;20027;-74
2021/01/06 11:25:51;;;;;;;6.25;4.38;;;;;;;;;;6212724;23;20017;-73
2021/01/06 11:28:26;;;;;;;7.35;5.28;;;;;;;;;;6212606;23;20116;-74
2021/01/06 11:31:11;;;;;;;6.53;4.30;;;;;;;;;;6212749;23;20107;-73
2021/01/06 11:33:37;;;;;;;6.57;4.57;;;;;;;;;;6213034;23;20314;-73
2021/01/06 11:36:06;;;;;;;9.48;5.72;;;;;;;;;;6212530;23;20052;-73
2021/01/06 11:38:42;;;;;;;8.10;4.53;;;;;;;;;;6212650;23;20028;-75
2021/01/06 11:41:14;;;;;;;6.43;4.13;;;;;;;;;;6212416;23;20020;-74
2021/01/06 11:44:13;;;;;;;7.03;4.72;;;;;;;;;;6210346;23;20025;-74
2021/01/06 11:46:51;;;;;;;5.90;3.75;;;;;;;;;;6210645;23;20017;-74
2021/01/06 11:49:21;;;;;;;8.38;4.10;;;;;;;;;;6213368;23;20028;-74
2021/01/06 11:51:47;;;;;;;;;;;;;;;;;;6212422;23;20020;-74
2021/01/06 11:54:16;;;;;;;6.70;3.88;;;;;;;;;;6211251;23;19919;-75
2021/01/06 11:56:54;;;;;;;8.20;4.75;;;;;;;;;;6212230;23;20099;-74
2021/01/06 11:59:34;;;;;;;7.20;4.32;;;;;;;;;;6211821;23;20108;-74
2021/01/06 12:02:10;;;;;;;5.72;3.70;;;;;;;;;;6212576;23;20020;-74
2021/01/06 12:04:55;;;;;;;8.23;4.50;;;;;;;;;;6213123;23;20045;-75
2021/01/06 12:07:21;;;;;;;6.38;4.15;;;;;;;;;;6211695;23;20051;-73
2021/01/06 12:09:53;;;;;;;5.63;3.70;;;;;;;;;;6212490;23;20103;-75
2021/01/06 12:12:25;;;;;;;6.55;4.18;;;;;;;;;;6213149;23;20027;-74
2021/01/06 12:15:03;;;;;;;8.40;4.05;;;;;;;;;;6212717;23;20023;-75
2021/01/06 12:17:34;;;;;;;6.60;3.67;;;;;;;;;;6212050;23;20091;-75
2021/01/06 12:20:18;;;;;;;6.22;4.00;;;;;;;;;;6213357;23;20113;-74
2021/01/06 12:23:04;;;;;;;8.07;4.13;;;;;;;;;;6213443;23;20024;-74
2021/01/06 12:25:49;;;;;;;7.38;4.78;;;;;;;;;;6212512;23;20021;-73
2021/01/06 12:28:33;;;;;;;6.40;4.03;;;;;;;;;;6212500;23;20047;-74
2021/01/06 12:31:24;;;;;;;7.30;4.63;;;;;;;;;;6212141;23;20027;-74
2021/01/06 12:34:02;;;;;;;5.65;3.72;;;;;;;;;;6201157;23;20771;-74
2021/01/06 12:36:33;;;;;;;7.03;4.15;;;;;;;;;;6209890;23;20099;-74
2021/01/06 12:39:22;;;;;;;9.80;4.38;;;;;;;;;;6211385;23;20029;-75
2021/01/06 12:41:51;;;;;;;8.13;4.70;;;;;;;;;;6212068;23;20091;-74
2021/01/06 12:44:19;;;;;;;9.55;4.70;;;;;;;;;;6212544;23;20377;-75
2021/01/06 12:46:51;;;;;;;7.53;4.55;;;;;;;;;;6211153;23;20480;-75
2021/01/06 12:49:21;;;;;;;9.02;5.22;;;;;;;;;;6210828;23;20387;-74
2021/01/06 12:52:07;;;;;;;8.10;4.72;;;;;;;;;;6183782;23;20024;-75
2021/01/06 12:54:38;;;;;;;8.40;4.93;;;;;;;;;;6211244;23;20023;-75
2021/01/06 12:57:07;;;;;;;7.47;4.75;;;;;;;;;;6209990;23;20461;-75
2021/01/06 12:59:43;;;;;;;8.75;4.95;;;;;;;;;;6211404;23;20075;-75
2021/01/06 13:02:31;;;;;;;7.43;4.53;;;;;;;;;;6210639;23;20464;-75
2021/01/06 13:05:00;;;;;;;;;;;;;;;;;;6211503;23;20526;-76
2021/01/06 13:07:28;;;;;;;6.72;4.25;;;;;;;;;;6210772;23;19923;-75
2021/01/06 13:09:56;;;;;;;6.95;4.88;;;;;;;;;;6210193;23;20025;-75
2021/01/06 13:12:36;;;;;;;8.52;4.80;;;;;;;;;;6210890;23;20027;-74
2021/01/06 13:15:08;;;;;;;8.73;4.43;;;;;;;;;;6210769;23;20020;-75
2021/01/06 13:17:36;;;;;;;8.45;4.63;;;;;;;;;;6210817;23;20021;-75
2021/01/06 13:20:09;;;;;;;6.00;3.95;;;;;;;;;;6211128;23;20024;-75
2021/01/06 13:22:41;;;;;;;7.28;4.47;;;;;;;;;;6210817;23;20025;-74
2021/01/06 13:25:17;;;;;;;8.57;4.03;;;;;;;;;;6209881;23;20028;-75
2021/01/06 13:27:52;;;;;;;9.43;4.35;;;;;;;;;;6212076;23;20395;-75
2021/01/06 13:30:47;;;;;;;7.15;4.35;;;;;;;;;;6212983;23;20133;-74
2021/01/06 13:33:24;;;;;;;8.68;4.55;;;;;;;;;;6159066;23;20020;-74
2021/01/06 13:35:56;;;;;;;7.35;3.92;;;;;;;;;;6212871;23;20396;-75
2021/01/06 13:38:52;;;;;;;6.93;3.83;;;;;;;;;;6212090;23;20024;-74
2021/01/06 13:41:20;;;;;;;6.40;4.05;;;;;;;;;;6180785;23;20024;-75
2021/01/06 13:43:47;;;;;;;6.70;4.03;;;;;;;;;;6213059;23;20096;-75
2021/01/06 13:46:25;;;;;;;7.78;4.32;;;;;;;;;;6212872;23;20020;-75
2021/01/06 13:48:57;;;;;;;6.47;3.47;;;;;;;;;;6213120;23;20079;-75
2021/01/06 13:51:33;;;;;;;4.40;3.42;;;;;;;;;;6212453;23;20453;-75
2021/01/06 13:54:01;;;;;;;6.57;3.70;;;;;;;;;;6212704;23;20452;-75
2021/01/06 13:56:36;;;;;;;6.15;3.80;;;;;;;;;;6212674;23;20021;-75
2021/01/06 13:59:11;;;;;;;6.72;3.85;;;;;;;;;;6212798;23;20056;-75
2021/01/06 14:01:45;;;;;;;5.15;3.92;;;;;;;;;;6214665;23;20032;-75
2021/01/06 14:04:21;;;;;;;7.18;3.80;;;;;;;;;;6214642;23;20027;-75
2021/01/06 14:06:52;;;;;;;6.38;3.47;;;;;;;;;;6214932;23;20395;-75
2021/01/06 14:09:34;;;;;;;5.50;3.22;;;;;;;;;;6214882;23;20219;-75
2021/01/06 14:12:16;;;;;;;6.80;3.47;;;;;;;;;;6214328;23;20023;-75
2021/01/06 14:15:02;;;;;;;5.28;3.85;;;;;;;;;;6213786;23;20020;-75
2021/01/06 14:17:31;;;;;;;5.70;3.70;;;;;;;;;;6138252;23;20020;-75
2021/01/06 14:20:07;;;;;;;7.20;3.37;;;;;;;;;;6214230;23;20499;-74
2021/01/06 14:22:42;;;;;;;5.93;3.42;;;;;;;;;;6214218;23;20017;-75
2021/01/06 14:25:31;;;;;;;8.40;4.05;;;;;;;;;;6187961;23;20348;-74
2021/01/06 14:28:00;;;;;;;4.97;3.07;;;;;;;;;;6214775;23;20016;-74
2021/01/06 14:30:39;;;;;;;5.55;3.20;;;;;;;;;;6214858;23;20059;-74
2021/01/06 14:33:17;;;;;;;5.55;3.22;;;;;;;;;;6213891;23;20023;-75
2021/01/06 14:35:45;;;;;;;7.68;3.80;;;;;;;;;;6214407;23;20021;-74
2021/01/06 14:38:11;;;;;;;4.95;3.00;;;;;;;;;;6213973;23;20381;-74
2021/01/06 14:40:56;;;;;;;4.20;2.80;;;;;;;;;;6212433;23;20100;-73
2021/01/06 14:43:34;;;;;;;5.53;3.22;;;;;;;;;;6213503;23;20023;-74
2021/01/06 14:46:10;;;;;;;4.43;3.17;;;;;;;;;;6212663;23;20100;-75
2021/01/06 14:48:48;;;;;;;5.40;3.85;;;;;;;;;;6212194;23;20043;-73
2021/01/06 14:51:20;;;;;;;5.97;3.60;;;;;;;;;;6212525;23;20135;-74
2021/01/06 14:54:22;;;;;;;4.35;2.83;;;;;;;;;;6212014;23;20103;-74
2021/01/06 14:56:54;;;;;;;6.60;3.08;;;;;;;;;;6062405;23;20397;-74
2021/01/06 14:59:24;;;;;;;5.10;2.92;;;;;;;;;;6163522;23;20036;-74
2021/01/06 15:01:50;;;;;;;;;;;;;;;;;;6212706;23;20091;-74
2021/01/06 15:04:33;;;;;;;5.00;2.88;;;;;;;;;;6212250;23;20225;-75